createdAt,value
2022-10-08T00:00:48.764Z,11.81
2022-10-08T00:01:50.321Z,11.89
2022-10-08T00:02:53.684Z,11.96
2022-10-08T00:03:56.825Z,12.06
2022-10-08T00:04:58.489Z,12.14
2022-10-08T00:06:04.899Z,12.25
2022-10-08T00:07:07.140Z,12.36
2022-10-08T00:08:09.889Z,12.48
2022-10-08T00:09:11.427Z,12.51
2022-10-08T00:10:12.940Z,12.55
2022-10-08T00:11:17.247Z,12.60
2022-10-08T00:12:18.764Z,12.62
2022-10-08T00:13:20.953Z,12.60
2022-10-08T00:14:23.435Z,12.63
2022-10-08T00:15:25.013Z,12.69
2022-10-08T00:16:30.019Z,12.69
2022-10-08T00:17:31.664Z,12.72
2022-10-08T00:18:33.172Z,12.75
2022-10-08T00:19:34.779Z,12.76
2022-10-08T00:20:36.281Z,12.76
2022-10-08T00:21:39.308Z,12.79
2022-10-08T00:22:41.261Z,12.85
2022-10-08T00:23:44.056Z,12.90
2022-10-08T00:24:46.541Z,12.94
2022-10-08T00:25:48.125Z,12.92
2022-10-08T00:26:50.864Z,12.74
2022-10-08T00:27:52.425Z,12.58
2022-10-08T00:28:57.110Z,12.46
2022-10-08T00:29:58.961Z,12.34
2022-10-08T00:31:07.499Z,12.21
2022-10-08T00:32:09.081Z,12.16
2022-10-08T00:33:10.616Z,12.15
2022-10-08T00:34:15.994Z,12.10
2022-10-08T00:35:17.500Z,12.08
2022-10-08T00:36:19.031Z,12.06
2022-10-08T00:37:20.678Z,12.06
2022-10-08T00:38:22.195Z,12.13
2022-10-08T00:39:24.852Z,12.16
2022-10-08T00:40:26.468Z,12.18
2022-10-08T00:41:30.492Z,12.09
2022-10-08T00:42:32.032Z,11.86
2022-10-08T00:43:46.115Z,11.70
2022-10-08T00:44:50.042Z,11.55
2022-10-08T00:45:51.616Z,11.31
2022-10-08T00:46:53.620Z,11.23
2022-10-08T00:47:56.312Z,11.24
2022-10-08T00:49:13.857Z,11.27
2022-10-08T00:50:18.372Z,11.27
2022-10-08T00:51:19.904Z,11.34
2022-10-08T00:52:22.710Z,11.42
2022-10-08T00:53:24.364Z,11.47
2022-10-08T00:54:25.927Z,11.51
2022-10-08T00:55:29.155Z,11.57
2022-10-08T00:56:35.976Z,11.65
2022-10-08T00:57:38.632Z,11.72
2022-10-08T00:58:42.983Z,11.77
2022-10-08T00:59:44.543Z,11.79
2022-10-08T01:00:47.744Z,11.82
2022-10-08T01:01:49.583Z,11.88
2022-10-08T01:02:52.134Z,11.90
2022-10-08T01:03:54.272Z,11.86
2022-10-08T01:04:55.967Z,11.80
2022-10-08T01:06:15.295Z,11.76
2022-10-08T01:07:20.537Z,11.73
2022-10-08T01:08:32.052Z,11.81
2022-10-08T01:09:40.711Z,11.91
2022-10-08T01:11:01.569Z,11.99
2022-10-08T01:12:15.883Z,12.02
2022-10-08T01:13:31.211Z,12.05
2022-10-08T01:14:32.670Z,11.92
2022-10-08T01:15:50.015Z,11.88
2022-10-08T01:16:58.318Z,11.69
2022-10-08T01:18:44.429Z,11.59
2022-10-08T01:20:17.325Z,11.52
2022-10-08T01:21:24.599Z,11.51
2022-10-08T01:22:50.905Z,11.45
2022-10-08T01:24:05.977Z,11.43
2022-10-08T01:25:34.653Z,11.43
2022-10-08T01:26:39.286Z,11.42
2022-10-08T01:27:47.919Z,11.48
2022-10-08T01:29:01.283Z,11.58
2022-10-08T01:30:07.309Z,11.60
2022-10-08T01:31:20.498Z,11.66
2022-10-08T01:32:29.822Z,11.73
2022-10-08T01:33:43.244Z,11.80
2022-10-08T01:34:49.837Z,11.90
2022-10-08T01:35:57.645Z,11.98
2022-10-08T01:37:01.267Z,12.05
2022-10-08T01:38:07.127Z,12.09
2022-10-08T01:39:13.322Z,12.15
2022-10-08T01:40:22.511Z,12.18
2022-10-08T01:41:26.315Z,12.23
2022-10-08T01:42:32.207Z,12.28
2022-10-08T01:43:38.435Z,12.24
2022-10-08T01:44:49.508Z,12.26
2022-10-08T01:45:58.955Z,12.32
2022-10-08T01:47:05.375Z,12.34
2022-10-08T01:48:14.853Z,12.42
2022-10-08T01:49:22.705Z,12.45
2022-10-08T01:50:30.657Z,12.48
2022-10-08T01:51:41.954Z,12.49
2022-10-08T01:52:50.422Z,12.43
2022-10-08T01:53:53.135Z,12.44
2022-10-08T01:54:59.821Z,12.46
2022-10-08T01:56:04.432Z,12.48
2022-10-08T01:57:09.390Z,12.48
2022-10-08T01:58:21.894Z,12.45
2022-10-08T01:59:31.191Z,12.49
2022-10-08T02:00:34.713Z,12.52
2022-10-08T02:02:00.665Z,12.58
2022-10-08T02:03:02.915Z,12.63
2022-10-08T02:04:23.376Z,12.64
2022-10-08T02:05:29.792Z,12.62
2022-10-08T02:06:37.232Z,12.61
2022-10-08T02:07:43.369Z,12.56
2022-10-08T02:08:44.989Z,12.50
2022-10-08T02:10:01.068Z,12.48
2022-10-08T02:11:02.612Z,12.47
2022-10-08T02:12:04.996Z,12.43
2022-10-08T02:13:06.902Z,12.37
2022-10-08T02:14:08.492Z,12.37
2022-10-08T02:15:23.405Z,12.38
2022-10-08T02:16:29.625Z,12.35
2022-10-08T02:18:06.228Z,12.23
2022-10-08T02:19:15.202Z,12.22
2022-10-08T02:20:26.474Z,12.17
2022-10-08T02:21:29.710Z,12.09
2022-10-08T02:23:03.743Z,11.99
2022-10-08T02:24:14.555Z,11.92
2022-10-08T02:25:21.574Z,11.87
2022-10-08T02:26:31.962Z,11.87
2022-10-08T02:27:43.917Z,11.85
2022-10-08T02:29:00.756Z,11.84
2022-10-08T02:30:09.898Z,11.83
2022-10-08T02:31:45.019Z,11.77
2022-10-08T02:32:57.936Z,11.71
2022-10-08T02:34:09.829Z,11.61
2022-10-08T02:35:19.254Z,11.64
2022-10-08T02:36:28.427Z,11.50
2022-10-08T02:37:40.470Z,11.35
2022-10-08T02:38:50.440Z,11.25
2022-10-08T02:39:59.901Z,11.16
2022-10-08T02:41:05.357Z,11.10
2022-10-08T02:42:11.690Z,11.00
2022-10-08T02:43:20.389Z,11.03
2022-10-08T02:44:36.947Z,11.04
2022-10-08T02:45:46.485Z,11.04
2022-10-08T02:46:53.404Z,11.06
2022-10-08T02:48:04.071Z,11.12
2022-10-08T02:49:10.720Z,11.20
2022-10-08T02:50:17.897Z,11.26
2022-10-08T02:51:19.828Z,11.33
2022-10-08T02:52:27.226Z,11.35
2022-10-08T02:53:30.019Z,11.40
2022-10-08T02:54:37.897Z,11.45
2022-10-08T02:56:08.652Z,11.48
2022-10-08T02:57:20.035Z,11.55
2022-10-08T02:58:22.107Z,11.60
2022-10-08T02:59:25.287Z,11.56
2022-10-08T03:00:35.300Z,11.47
2022-10-08T03:01:44.450Z,11.45
2022-10-08T03:03:02.005Z,11.42
2022-10-08T03:04:24.015Z,11.41
2022-10-08T03:05:27.198Z,11.45
2022-10-08T03:06:30.082Z,11.43
2022-10-08T03:07:33.924Z,11.46
2022-10-08T03:08:39.186Z,11.49
2022-10-08T03:09:44.521Z,11.48
2022-10-08T03:10:47.095Z,11.43
2022-10-08T03:11:49.497Z,11.40
2022-10-08T03:12:51.025Z,11.27
2022-10-08T03:13:58.679Z,11.16
2022-10-08T03:15:01.278Z,11.07
2022-10-08T03:16:07.227Z,11.05
2022-10-08T03:17:11.787Z,11.16
2022-10-08T03:18:13.523Z,11.28
2022-10-08T03:19:17.707Z,11.37
2022-10-08T03:20:19.508Z,11.40
2022-10-08T03:21:21.193Z,11.43
2022-10-08T03:22:24.099Z,11.44
2022-10-08T03:23:25.672Z,11.47
2022-10-08T03:24:27.245Z,11.49
2022-10-08T03:25:28.864Z,11.45
2022-10-08T03:26:30.396Z,11.40
2022-10-08T03:27:31.957Z,11.31
2022-10-08T03:28:33.861Z,11.29
2022-10-08T03:29:35.623Z,11.26
2022-10-08T03:30:37.401Z,11.20
2022-10-08T03:31:39.204Z,11.15
2022-10-08T03:32:40.710Z,11.08
2022-10-08T03:33:42.227Z,10.79
2022-10-08T03:34:43.779Z,10.59
2022-10-08T03:35:46.630Z,10.43
2022-10-08T03:36:48.160Z,10.23
2022-10-08T03:37:51.607Z,10.22
2022-10-08T03:38:53.188Z,10.29
2022-10-08T03:39:54.700Z,10.37
2022-10-08T03:40:58.170Z,10.43
2022-10-08T03:41:59.709Z,10.51
2022-10-08T03:43:01.227Z,10.57
2022-10-08T03:44:03.211Z,10.65
2022-10-08T03:45:05.705Z,10.73
2022-10-08T03:46:08.869Z,10.82
2022-10-08T03:47:10.434Z,10.86
2022-10-08T03:48:11.922Z,10.90
2022-10-08T03:49:13.607Z,10.95
2022-10-08T03:50:15.126Z,11.08
2022-10-08T03:51:18.447Z,11.15
2022-10-08T03:52:19.961Z,11.19
2022-10-08T03:53:22.573Z,11.24
2022-10-08T03:54:24.335Z,11.23
2022-10-08T03:55:25.868Z,11.16
2022-10-08T03:56:27.565Z,11.00
2022-10-08T03:57:29.093Z,10.89
2022-10-08T03:58:30.872Z,10.74
2022-10-08T03:59:32.409Z,10.60
2022-10-08T04:00:33.932Z,10.55
2022-10-08T04:01:35.608Z,10.51
2022-10-08T04:02:37.211Z,10.43
2022-10-08T04:03:38.861Z,10.35
2022-10-08T04:04:40.425Z,10.31
2022-10-08T04:05:49.137Z,10.36
2022-10-08T04:06:50.702Z,10.41
2022-10-08T04:07:52.292Z,10.40
2022-10-08T04:08:56.023Z,10.39
2022-10-08T04:09:57.540Z,10.34
2022-10-08T04:11:03.820Z,10.31
2022-10-08T04:12:05.447Z,10.27
2022-10-08T04:13:06.985Z,10.22
2022-10-08T04:14:08.598Z,10.17
2022-10-08T04:15:10.458Z,10.11
2022-10-08T04:16:15.127Z,10.06
2022-10-08T04:17:16.721Z,9.96
2022-10-08T04:18:18.515Z,9.80
2022-10-08T04:19:20.035Z,9.77
2022-10-08T04:20:21.543Z,9.78
2022-10-08T04:21:23.114Z,9.81
2022-10-08T04:22:24.686Z,9.85
2022-10-08T04:23:26.859Z,9.88
2022-10-08T04:24:28.356Z,9.89
2022-10-08T04:25:29.948Z,9.87
2022-10-08T04:26:31.716Z,9.85
2022-10-08T04:27:33.234Z,9.81
2022-10-08T04:28:39.641Z,9.80
2022-10-08T04:29:41.210Z,9.80
2022-10-08T04:30:42.744Z,9.82
2022-10-08T04:31:44.333Z,9.83
2022-10-08T04:32:46.193Z,9.83
2022-10-08T04:33:48.023Z,9.79
2022-10-08T04:34:49.557Z,9.76
2022-10-08T04:35:51.109Z,9.64
2022-10-08T04:36:52.619Z,9.60
2022-10-08T04:37:54.122Z,9.60
2022-10-08T04:38:55.655Z,9.62
2022-10-08T04:39:57.184Z,9.63
2022-10-08T04:41:10.640Z,9.70
2022-10-08T04:42:12.123Z,9.75
2022-10-08T04:43:16.256Z,9.77
2022-10-08T04:44:17.784Z,9.78
2022-10-08T04:45:19.382Z,9.72
2022-10-08T04:46:22.386Z,9.73
2022-10-08T04:47:23.978Z,9.76
2022-10-08T04:48:25.577Z,9.78
2022-10-08T04:49:28.938Z,9.84
2022-10-08T04:50:30.454Z,9.93
2022-10-08T04:51:32.075Z,10.00
2022-10-08T04:52:33.596Z,10.08
2022-10-08T04:53:35.703Z,10.15
2022-10-08T04:54:37.276Z,10.21
2022-10-08T04:55:38.778Z,10.27
2022-10-08T04:56:40.363Z,10.34
2022-10-08T04:57:41.902Z,10.38
2022-10-08T04:58:44.654Z,10.24
2022-10-08T05:00:13.130Z,10.15
2022-10-08T05:01:10.367Z,10.04
2022-10-08T05:02:11.980Z,9.93
2022-10-08T05:03:14.250Z,9.89
2022-10-08T05:04:15.888Z,9.85
2022-10-08T05:05:17.436Z,9.82
2022-10-08T05:06:22.784Z,9.84
2022-10-08T05:07:24.450Z,9.73
2022-10-08T05:08:26.055Z,9.79
2022-10-08T05:09:27.598Z,9.79
2022-10-08T05:10:29.122Z,9.81
2022-10-08T05:11:32.448Z,9.92
2022-10-08T05:12:33.967Z,10.00
2022-10-08T05:13:35.950Z,10.10
2022-10-08T05:14:37.513Z,10.20
2022-10-08T05:15:39.076Z,10.31
2022-10-08T05:16:40.633Z,10.39
2022-10-08T05:17:42.169Z,10.45
2022-10-08T05:18:44.358Z,10.35
2022-10-08T05:19:45.956Z,10.16
2022-10-08T05:20:47.485Z,10.12
2022-10-08T05:21:49.003Z,10.13
2022-10-08T05:22:50.712Z,10.24
2022-10-08T05:24:11.920Z,10.41
2022-10-08T05:25:13.944Z,10.52
2022-10-08T05:26:41.143Z,10.64
2022-10-08T05:27:43.957Z,10.78
2022-10-08T05:28:49.721Z,10.92
2022-10-08T05:29:51.229Z,11.08
2022-10-08T05:30:52.803Z,11.15
2022-10-08T05:31:54.366Z,11.13
2022-10-08T05:32:55.929Z,11.21
2022-10-08T05:33:57.698Z,11.12
2022-10-08T05:34:59.226Z,11.15
2022-10-08T05:36:04.209Z,11.12
2022-10-08T05:37:05.750Z,11.18
2022-10-08T05:38:07.298Z,11.18
2022-10-08T05:39:08.910Z,11.23
2022-10-08T05:40:10.929Z,11.35
2022-10-08T05:41:23.413Z,11.51
2022-10-08T05:42:24.920Z,11.67
2022-10-08T05:43:26.437Z,11.83
2022-10-08T05:44:27.959Z,12.02
2022-10-08T05:45:29.490Z,12.17
2022-10-08T05:46:33.673Z,12.22
2022-10-08T05:47:35.242Z,12.34
2022-10-08T05:48:37.192Z,12.43
2022-10-08T05:49:38.785Z,12.55
2022-10-08T05:50:40.305Z,12.65
2022-10-08T05:51:41.867Z,12.70
2022-10-08T05:52:43.407Z,12.81
2022-10-08T05:53:47.519Z,12.96
2022-10-08T05:54:49.056Z,13.06
2022-10-08T05:55:59.799Z,13.20
2022-10-08T05:57:01.362Z,13.39
2022-10-08T05:58:02.893Z,13.54
2022-10-08T05:59:04.554Z,13.56
2022-10-08T06:00:06.635Z,13.63
2022-10-08T06:01:13.017Z,13.59
2022-10-08T06:02:14.585Z,13.68
2022-10-08T06:03:16.124Z,13.58
2022-10-08T06:04:18.729Z,13.68
2022-10-08T06:05:20.374Z,13.81
2022-10-08T06:06:23.146Z,13.97
2022-10-08T06:07:24.829Z,14.06
2022-10-08T06:08:26.477Z,14.08
2022-10-08T06:09:28.075Z,14.09
2022-10-08T06:10:32.099Z,14.20
2022-10-08T06:11:35.513Z,14.30
2022-10-08T06:12:37.017Z,14.28
2022-10-08T06:13:38.734Z,14.38
2022-10-08T06:14:40.849Z,14.44
2022-10-08T06:15:42.354Z,14.57
2022-10-08T06:16:43.905Z,14.66
2022-10-08T06:17:45.481Z,14.69
2022-10-08T06:18:47.181Z,14.81
2022-10-08T06:19:48.765Z,14.81
2022-10-08T06:20:50.717Z,14.69
2022-10-08T06:21:52.245Z,14.88
2022-10-08T06:22:53.791Z,15.05
2022-10-08T06:24:00.977Z,15.18
2022-10-08T06:25:02.485Z,15.17
2022-10-08T06:26:09.926Z,15.10
2022-10-08T06:27:11.770Z,14.96
2022-10-08T06:28:14.027Z,15.00
2022-10-08T06:29:18.262Z,15.12
2022-10-08T06:30:19.853Z,15.10
2022-10-08T06:31:22.033Z,14.98
2022-10-08T06:32:23.638Z,15.01
2022-10-08T06:33:25.224Z,15.20
2022-10-08T06:34:26.819Z,15.39
2022-10-08T06:35:30.284Z,15.40
2022-10-08T06:36:33.591Z,15.35
2022-10-08T06:37:35.317Z,15.27
2022-10-08T06:38:36.902Z,15.41
2022-10-08T06:39:38.458Z,15.61
2022-10-08T06:40:40.885Z,15.80
2022-10-08T06:41:42.518Z,15.99
2022-10-08T06:42:44.232Z,16.07
2022-10-08T06:43:46.156Z,16.09
2022-10-08T06:44:47.702Z,16.11
2022-10-08T06:45:49.305Z,16.05
2022-10-08T06:46:50.876Z,15.99
2022-10-08T06:47:52.403Z,16.03
2022-10-08T06:48:54.006Z,16.11
2022-10-08T06:49:55.569Z,16.15
2022-10-08T06:51:02.089Z,16.19
2022-10-08T06:52:03.624Z,16.33
2022-10-08T06:53:07.535Z,16.47
2022-10-08T06:54:09.104Z,16.57
2022-10-08T06:55:10.619Z,16.68
2022-10-08T06:56:14.908Z,16.57
2022-10-08T06:57:16.537Z,16.35
2022-10-08T06:58:18.031Z,16.27
2022-10-08T06:59:19.542Z,16.38
2022-10-08T07:00:21.132Z,16.40
2022-10-08T07:01:30.347Z,16.30
2022-10-08T07:02:34.449Z,16.34
2022-10-08T07:03:36.668Z,16.31
2022-10-08T07:04:38.341Z,16.19
2022-10-08T07:05:40.115Z,16.14
2022-10-08T07:06:41.654Z,16.21
2022-10-08T07:07:43.191Z,16.37
2022-10-08T07:08:45.536Z,16.27
2022-10-08T07:09:47.061Z,16.26
2022-10-08T07:10:50.022Z,16.30
2022-10-08T07:11:51.611Z,16.49
2022-10-08T07:12:53.180Z,16.49
2022-10-08T07:13:55.945Z,16.63
2022-10-08T07:14:57.476Z,16.81
2022-10-08T07:16:07.806Z,16.86
2022-10-08T07:17:09.421Z,16.91
2022-10-08T07:18:12.697Z,16.93
2022-10-08T07:19:15.248Z,17.15
2022-10-08T07:20:16.918Z,17.44
2022-10-08T07:21:20.720Z,17.52
2022-10-08T07:22:22.845Z,17.71
2022-10-08T07:23:24.583Z,17.88
2022-10-08T07:24:26.111Z,17.91
2022-10-08T07:25:27.632Z,17.84
2022-10-08T07:26:33.159Z,17.75
2022-10-08T07:27:34.733Z,17.70
2022-10-08T07:28:38.144Z,17.68
2022-10-08T07:29:39.803Z,17.78
2022-10-08T07:30:41.353Z,17.79
2022-10-08T07:31:42.915Z,17.88
2022-10-08T07:32:44.711Z,17.78
2022-10-08T07:33:46.614Z,17.71
2022-10-08T07:34:48.130Z,17.76
2022-10-08T07:35:49.698Z,17.49
2022-10-08T07:36:51.295Z,17.30
2022-10-08T07:37:52.814Z,17.45
2022-10-08T07:38:56.366Z,17.57
2022-10-08T07:39:57.875Z,17.70
2022-10-08T07:40:59.404Z,17.70
2022-10-08T07:42:00.896Z,17.89
2022-10-08T07:43:03.291Z,18.18
2022-10-08T07:44:06.017Z,18.23
2022-10-08T07:45:08.159Z,18.21
2022-10-08T07:46:11.747Z,18.20
2022-10-08T07:47:13.408Z,18.31
2022-10-08T07:48:16.457Z,18.43
2022-10-08T07:49:19.395Z,18.59
2022-10-08T07:50:21.616Z,18.58
2022-10-08T07:51:23.301Z,18.73
2022-10-08T07:52:24.789Z,18.90
2022-10-08T07:53:26.287Z,18.97
2022-10-08T07:54:27.807Z,18.72
2022-10-08T07:55:29.596Z,18.37
2022-10-08T07:56:31.948Z,18.47
2022-10-08T07:57:33.594Z,18.50
2022-10-08T07:58:36.194Z,18.58
2022-10-08T07:59:37.684Z,18.70
2022-10-08T08:00:42.895Z,18.79
2022-10-08T08:01:44.982Z,18.84
2022-10-08T08:02:48.860Z,18.79
2022-10-08T08:03:55.797Z,18.56
2022-10-08T08:04:57.428Z,18.42
2022-10-08T08:06:12.533Z,18.60
2022-10-08T08:07:14.825Z,18.52
2022-10-08T08:08:16.544Z,18.55
2022-10-08T08:09:18.664Z,18.66
2022-10-08T08:10:20.209Z,18.32
2022-10-08T08:11:24.010Z,18.06
2022-10-08T08:12:25.550Z,18.00
2022-10-08T08:13:31.873Z,17.93
2022-10-08T08:14:37.427Z,17.87
2022-10-08T08:15:38.992Z,17.66
2022-10-08T08:16:40.700Z,17.62
2022-10-08T08:17:42.374Z,17.73
2022-10-08T08:18:46.637Z,18.02
2022-10-08T08:19:48.166Z,18.24
2022-10-08T08:20:49.723Z,18.32
2022-10-08T08:21:51.303Z,18.40
2022-10-08T08:22:52.882Z,18.46
2022-10-08T08:23:59.550Z,18.48
2022-10-08T08:25:01.064Z,18.57
2022-10-08T08:26:04.412Z,18.54
2022-10-08T08:27:05.945Z,18.60
2022-10-08T08:28:07.510Z,18.40
2022-10-08T08:29:15.382Z,18.10
2022-10-08T08:30:16.960Z,18.10
2022-10-08T08:31:24.420Z,18.14
2022-10-08T08:32:28.659Z,18.22
2022-10-08T08:33:30.301Z,18.27
2022-10-08T08:34:31.893Z,18.37
2022-10-08T08:35:33.605Z,18.58
2022-10-08T08:36:37.719Z,18.72
2022-10-08T08:37:39.229Z,18.70
2022-10-08T08:38:40.776Z,18.65
2022-10-08T08:39:42.312Z,18.30
2022-10-08T08:40:43.879Z,18.18
2022-10-08T08:41:53.727Z,18.35
2022-10-08T08:42:56.769Z,18.48
2022-10-08T08:44:23.441Z,18.58
2022-10-08T08:45:48.776Z,18.78
2022-10-08T08:47:24.660Z,19.05
2022-10-08T08:48:33.348Z,19.19
2022-10-08T08:49:52.057Z,18.97
2022-10-08T08:50:56.320Z,18.96
2022-10-08T08:52:01.357Z,19.12
2022-10-08T08:53:05.037Z,19.24
2022-10-08T08:54:06.586Z,19.25
2022-10-08T08:55:17.200Z,19.06
2022-10-08T08:56:23.091Z,19.05
2022-10-08T08:57:42.439Z,19.12
2022-10-08T08:59:08.473Z,19.42
2022-10-08T09:00:18.028Z,19.40
2022-10-08T09:01:36.306Z,19.31
2022-10-08T09:02:47.391Z,19.22
2022-10-08T09:03:55.904Z,18.98
2022-10-08T09:05:08.305Z,18.82
2022-10-08T09:06:14.581Z,18.75
2022-10-08T09:07:21.790Z,19.03
2022-10-08T09:08:35.877Z,19.33
2022-10-08T09:09:42.866Z,19.47
2022-10-08T09:10:49.842Z,19.55
2022-10-08T09:11:51.414Z,19.69
2022-10-08T09:12:53.927Z,19.70
2022-10-08T09:14:14.624Z,19.60
2022-10-08T09:15:29.129Z,19.66
2022-10-08T09:16:30.700Z,19.85
2022-10-08T09:17:35.633Z,20.04
2022-10-08T09:18:37.865Z,20.20
2022-10-08T09:19:40.530Z,20.09
2022-10-08T09:20:42.568Z,20.07
2022-10-08T09:21:44.090Z,20.13
2022-10-08T09:22:46.366Z,20.04
2022-10-08T09:23:48.140Z,19.83
2022-10-08T09:24:59.399Z,19.68
2022-10-08T09:26:04.611Z,19.65
2022-10-08T09:27:14.746Z,19.80
2022-10-08T09:28:38.014Z,19.84
2022-10-08T09:29:39.697Z,19.92
2022-10-08T09:30:45.078Z,19.99
2022-10-08T09:31:48.896Z,20.21
2022-10-08T09:32:55.079Z,20.37
2022-10-08T09:34:13.244Z,20.43
2022-10-08T09:35:15.910Z,20.44
2022-10-08T09:36:29.311Z,20.40
2022-10-08T09:37:30.864Z,20.32
2022-10-08T09:38:39.206Z,20.27
2022-10-08T09:40:26.724Z,20.33
2022-10-08T09:41:30.255Z,20.55
2022-10-08T09:42:31.817Z,20.64
2022-10-08T09:43:35.588Z,20.67
2022-10-08T09:44:59.044Z,20.70
2022-10-08T09:46:11.187Z,20.73
2022-10-08T09:47:18.986Z,20.82
2022-10-08T09:48:28.534Z,20.72
2022-10-08T09:49:33.087Z,20.65
2022-10-08T09:50:37.425Z,20.62
2022-10-08T09:51:42.735Z,20.63
2022-10-08T09:52:45.250Z,20.63
2022-10-08T09:53:54.867Z,20.58
2022-10-08T09:55:07.117Z,20.45
2022-10-08T09:56:10.215Z,20.53
2022-10-08T09:57:17.658Z,20.66
2022-10-08T09:58:19.780Z,20.76
2022-10-08T09:59:25.103Z,20.80
2022-10-08T10:00:35.530Z,20.45
2022-10-08T10:01:45.837Z,20.20
2022-10-08T10:02:54.455Z,20.21
2022-10-08T10:03:58.665Z,20.35
2022-10-08T10:05:02.291Z,20.26
2022-10-08T10:06:04.399Z,20.33
2022-10-08T10:07:06.483Z,20.55
2022-10-08T10:08:46.457Z,20.65
2022-10-08T10:09:57.240Z,20.74
2022-10-08T10:10:59.251Z,20.70
2022-10-08T10:12:06.797Z,20.58
2022-10-08T10:13:25.281Z,20.53
2022-10-08T10:14:42.771Z,20.53
2022-10-08T10:15:49.516Z,20.47
2022-10-08T10:16:59.503Z,20.32
2022-10-08T10:18:13.813Z,20.21
2022-10-08T10:19:20.357Z,20.14
2022-10-08T10:20:30.205Z,20.10
2022-10-08T10:21:44.984Z,20.18
2022-10-08T10:23:10.703Z,20.14
2022-10-08T10:24:30.218Z,20.21
2022-10-08T10:25:56.179Z,20.35
2022-10-08T10:27:15.734Z,20.46
2022-10-08T10:28:33.807Z,20.52
2022-10-08T10:29:49.919Z,20.41
2022-10-08T10:31:03.424Z,20.48
2022-10-08T10:32:36.914Z,20.55
2022-10-08T10:33:49.710Z,20.62
2022-10-08T10:35:03.573Z,20.57
2022-10-08T10:36:10.685Z,20.57
2022-10-08T10:37:25.574Z,20.64
2022-10-08T10:38:29.644Z,20.74
2022-10-08T10:39:52.835Z,20.89
2022-10-08T10:41:09.707Z,21.01
2022-10-08T10:42:33.806Z,21.02
2022-10-08T10:43:48.136Z,20.90
2022-10-08T10:45:17.299Z,20.83
2022-10-08T10:46:33.505Z,20.65
2022-10-08T10:47:35.056Z,20.53
2022-10-08T10:48:36.586Z,20.40
2022-10-08T10:49:42.139Z,20.46
2022-10-08T10:51:01.310Z,20.29
2022-10-08T10:52:21.497Z,20.15
2022-10-08T10:53:30.486Z,20.08
2022-10-08T10:54:54.038Z,20.14
2022-10-08T10:56:07.372Z,20.20
2022-10-08T10:57:18.399Z,20.35
2022-10-08T10:58:25.653Z,20.45
2022-10-08T10:59:59.886Z,20.49
2022-10-08T11:01:22.782Z,20.45
2022-10-08T11:02:46.917Z,20.56
2022-10-08T11:03:51.345Z,20.68
2022-10-08T11:05:11.681Z,20.75
2022-10-08T11:06:38.247Z,20.78
2022-10-08T11:07:49.900Z,20.88
2022-10-08T11:08:55.962Z,20.88
2022-10-08T11:10:07.295Z,20.87
2022-10-08T11:11:18.181Z,20.85
2022-10-08T11:12:46.030Z,20.96
2022-10-08T11:13:56.868Z,21.01
2022-10-08T11:15:22.351Z,21.18
2022-10-08T11:16:39.373Z,21.25
2022-10-08T11:17:44.009Z,21.32
2022-10-08T11:18:54.401Z,21.33
2022-10-08T11:20:39.569Z,21.20
2022-10-08T11:21:47.026Z,21.12
2022-10-08T11:23:03.583Z,21.12
2022-10-08T11:24:42.725Z,21.14
2022-10-08T11:26:22.424Z,21.17
2022-10-08T11:27:42.482Z,21.11
2022-10-08T11:28:56.418Z,21.19
2022-10-08T11:30:14.195Z,21.28
2022-10-08T11:31:31.274Z,21.32
2022-10-08T11:32:34.000Z,21.30
2022-10-08T11:33:36.816Z,21.36
2022-10-08T11:34:40.257Z,21.40
2022-10-08T11:36:04.509Z,21.40
2022-10-08T11:37:45.765Z,21.48
2022-10-08T11:39:00.054Z,21.30
2022-10-08T11:40:10.560Z,21.20
2022-10-08T11:41:27.459Z,21.30
2022-10-08T11:43:01.964Z,21.33
2022-10-08T11:44:07.659Z,21.36
2022-10-08T11:45:24.317Z,21.42
2022-10-08T11:46:31.779Z,21.55
2022-10-08T11:47:48.545Z,21.66
2022-10-08T11:48:50.717Z,21.68
2022-10-08T11:49:55.795Z,21.82
2022-10-08T11:51:18.895Z,21.86
2022-10-08T11:52:20.456Z,21.92
2022-10-08T11:53:22.669Z,21.91
2022-10-08T11:54:34.719Z,21.90
2022-10-08T11:55:37.353Z,21.86
2022-10-08T11:56:51.707Z,21.86
2022-10-08T11:58:09.638Z,21.94
2022-10-08T11:59:30.196Z,21.96
2022-10-08T12:00:42.948Z,21.98
2022-10-08T12:01:52.981Z,21.92
2022-10-08T12:02:56.201Z,21.81
2022-10-08T12:04:08.689Z,21.76
2022-10-08T12:05:49.333Z,21.83
2022-10-08T12:07:06.401Z,21.89
2022-10-08T12:08:08.137Z,21.80
2022-10-08T12:09:24.597Z,21.87
2022-10-08T12:10:38.763Z,21.87
2022-10-08T12:11:40.363Z,21.83
2022-10-08T12:12:50.907Z,21.83
2022-10-08T12:14:11.074Z,21.73
2022-10-08T12:15:24.762Z,21.69
2022-10-08T12:16:49.235Z,21.72
2022-10-08T12:17:56.705Z,21.73
2022-10-08T12:18:59.054Z,21.72
2022-10-08T12:20:03.452Z,21.65
2022-10-08T12:21:17.181Z,21.66
2022-10-08T12:22:18.653Z,21.63
2022-10-08T12:23:20.108Z,21.67
2022-10-08T12:25:03.881Z,21.79
2022-10-08T12:26:37.446Z,21.84
2022-10-08T12:27:50.329Z,21.87
2022-10-08T12:28:51.911Z,21.95
2022-10-08T12:30:03.873Z,22.04
2022-10-08T12:31:17.609Z,22.15
2022-10-08T12:32:19.352Z,22.16
2022-10-08T12:33:21.543Z,22.13
2022-10-08T12:34:23.465Z,22.02
2022-10-08T12:35:40.503Z,21.98
2022-10-08T12:36:52.298Z,22.02
2022-10-08T12:38:05.044Z,22.07
2022-10-08T12:39:18.261Z,22.06
2022-10-08T12:40:33.737Z,22.10
2022-10-08T12:41:38.264Z,22.14
2022-10-08T12:42:41.133Z,22.17
2022-10-08T12:44:02.767Z,22.15
2022-10-08T12:45:34.265Z,22.22
2022-10-08T12:46:58.787Z,22.29
2022-10-08T12:48:00.373Z,22.28
2022-10-08T12:49:17.038Z,22.30
2022-10-08T12:50:48.181Z,22.28
2022-10-08T12:52:12.815Z,22.17
2022-10-08T12:53:17.553Z,22.10
2022-10-08T12:54:23.042Z,22.16
2022-10-08T12:55:24.797Z,22.25
2022-10-08T12:56:29.088Z,22.32
2022-10-08T12:57:38.058Z,22.43
2022-10-08T12:58:39.710Z,22.50
2022-10-08T12:59:42.323Z,22.60
2022-10-08T13:00:45.021Z,22.63
2022-10-08T13:01:48.171Z,22.57
2022-10-08T13:03:11.830Z,22.48
2022-10-08T13:04:26.439Z,22.44
2022-10-08T13:05:36.876Z,22.40
2022-10-08T13:06:38.481Z,22.26
2022-10-08T13:07:40.211Z,22.18
2022-10-08T13:08:42.725Z,22.17
2022-10-08T13:09:44.613Z,22.17
2022-10-08T13:10:46.353Z,22.26
2022-10-08T13:11:52.186Z,22.36
2022-10-08T13:13:05.029Z,22.40
2022-10-08T13:14:24.799Z,22.37
2022-10-08T13:15:26.406Z,22.33
2022-10-08T13:16:28.865Z,22.30
2022-10-08T13:17:33.492Z,22.38
2022-10-08T13:18:36.666Z,22.44
2022-10-08T13:19:40.238Z,22.52
2022-10-08T13:20:59.037Z,22.56
2022-10-08T13:22:01.905Z,22.60
2022-10-08T13:23:46.363Z,22.67
2022-10-08T13:24:47.936Z,22.67
2022-10-08T13:25:49.921Z,22.69
2022-10-08T13:26:54.285Z,22.68
2022-10-08T13:28:36.144Z,22.78
2022-10-08T13:29:42.452Z,22.79
2022-10-08T13:30:47.096Z,22.79
2022-10-08T13:32:14.823Z,22.89
2022-10-08T13:33:21.393Z,22.95
2022-10-08T13:34:26.112Z,22.92
2022-10-08T13:35:27.949Z,22.90
2022-10-08T13:36:29.601Z,22.87
2022-10-08T13:37:40.389Z,22.87
2022-10-08T13:38:41.932Z,22.81
2022-10-08T13:39:51.888Z,22.83
2022-10-08T13:40:58.801Z,22.85
2022-10-08T13:42:04.520Z,22.89
2022-10-08T13:43:06.806Z,22.84
2022-10-08T13:44:09.604Z,22.77
2022-10-08T13:45:25.402Z,22.71
2022-10-08T13:46:26.967Z,22.68
2022-10-08T13:47:29.095Z,22.65
2022-10-08T13:48:30.799Z,22.60
2022-10-08T13:49:33.228Z,22.58
2022-10-08T13:50:35.011Z,22.64
2022-10-08T13:51:36.560Z,22.64
2022-10-08T13:52:44.132Z,22.63
2022-10-08T13:53:45.923Z,22.64
2022-10-08T13:54:48.807Z,22.60
2022-10-08T13:55:50.542Z,22.69
2022-10-08T13:56:52.599Z,22.70
2022-10-08T13:57:55.897Z,22.62
2022-10-08T13:58:57.414Z,22.61
2022-10-08T13:59:58.993Z,22.63
2022-10-08T14:01:00.926Z,22.65
2022-10-08T14:02:02.551Z,22.69
2022-10-08T14:03:04.179Z,22.75
2022-10-08T14:04:05.736Z,22.82
2022-10-08T14:05:07.643Z,22.82
2022-10-08T14:06:09.199Z,22.82
2022-10-08T14:07:37.343Z,22.80
2022-10-08T14:08:38.932Z,22.88
2022-10-08T14:09:40.465Z,22.85
2022-10-08T14:10:42.819Z,22.79
2022-10-08T14:11:46.281Z,22.77
2022-10-08T14:12:48.104Z,22.84
2022-10-08T14:13:49.619Z,22.84
2022-10-08T14:14:51.294Z,22.87
2022-10-08T14:15:52.976Z,22.84
2022-10-08T14:16:54.541Z,22.86
2022-10-08T14:17:56.129Z,22.86
2022-10-08T14:18:59.332Z,22.85
2022-10-08T14:20:01.007Z,22.83
2022-10-08T14:21:02.594Z,22.85
2022-10-08T14:22:04.158Z,22.86
2022-10-08T14:23:05.717Z,22.89